createdAt,value
2023-01-30T00:01:26.103Z,1.05
2023-01-30T00:03:53.123Z,1.15
2023-01-30T00:06:20.755Z,0.80
2023-01-30T00:08:47.886Z,1.02
2023-01-30T00:11:17.689Z,1.00
2023-01-30T00:13:44.726Z,0.90
2023-01-30T00:16:12.477Z,1.08
2023-01-30T00:18:40.712Z,0.70
2023-01-30T00:21:10.264Z,0.80
2023-01-30T00:23:38.583Z,1.20
2023-01-30T00:26:06.681Z,0.73
2023-01-30T00:28:34.356Z,0.77
2023-01-30T00:31:01.717Z,0.80
2023-01-30T00:33:29.283Z,0.73
2023-01-30T00:35:57.552Z,0.70
2023-01-30T00:38:25.579Z,1.33
2023-01-30T00:40:52.783Z,0.68
2023-01-30T00:43:39.449Z,0.88
2023-01-30T00:46:43.364Z,0.50
2023-01-30T00:49:10.312Z,0.50
2023-01-30T00:51:37.363Z,0.65
2023-01-30T00:54:04.351Z,0.82
2023-01-30T00:56:31.420Z,0.50
2023-01-30T00:58:58.734Z,0.93
2023-01-30T01:01:25.744Z,0.80
2023-01-30T01:03:52.639Z,0.73
2023-01-30T01:06:19.382Z,0.75
2023-01-30T01:08:46.345Z,0.70
2023-01-30T01:11:24.710Z,0.60
2023-01-30T01:14:03.263Z,0.63
2023-01-30T01:16:31.217Z,0.57
2023-01-30T01:18:59.113Z,0.60
2023-01-30T01:21:26.029Z,0.68
2023-01-30T01:23:58.852Z,0.47
2023-01-30T01:26:26.072Z,0.55
2023-01-30T01:28:57.284Z,0.68
2023-01-30T01:31:24.597Z,0.65
2023-01-30T01:33:52.120Z,0.57
2023-01-30T01:36:42.489Z,0.47
2023-01-30T01:39:06.150Z,0.43
2023-01-30T01:41:33.028Z,0.80
2023-01-30T01:43:59.878Z,0.73
2023-01-30T01:46:33.489Z,0.50
2023-01-30T01:49:03.707Z,0.60
2023-01-30T01:51:40.661Z,0.60
2023-01-30T01:54:16.639Z,0.60
2023-01-30T01:56:47.657Z,1.25
2023-01-30T01:59:21.357Z,0.80
2023-01-30T02:01:49.737Z,0.55
2023-01-30T02:04:36.870Z,0.90
2023-01-30T02:07:03.972Z,0.88
2023-01-30T02:09:30.862Z,0.63
2023-01-30T02:12:02.399Z,0.77
2023-01-30T02:14:32.202Z,0.95
2023-01-30T02:16:59.160Z,0.68
2023-01-30T02:19:45.005Z,0.38
2023-01-30T02:23:08.121Z,0.82
2023-01-30T02:26:12.264Z,1.95
2023-01-30T02:28:48.681Z,0.95
2023-01-30T02:32:01.692Z,1.30
2023-01-30T02:34:54.769Z,1.55
2023-01-30T02:37:52.595Z,1.02
2023-01-30T02:40:50.239Z,1.30
2023-01-30T02:43:31.750Z,1.40
2023-01-30T02:46:25.812Z,1.30
2023-01-30T02:48:59.032Z,1.00
2023-01-30T02:51:37.935Z,1.48
2023-01-30T02:54:10.687Z,1.63
2023-01-30T02:56:52.793Z,1.20
2023-01-30T02:59:30.506Z,1.92
2023-01-30T03:02:39.552Z,1.40
2023-01-30T03:05:18.803Z,1.65
2023-01-30T03:08:06.575Z,1.40
2023-01-30T03:11:01.438Z,2.10
2023-01-30T03:13:37.431Z,1.05
2023-01-30T03:16:10.054Z,1.27
2023-01-30T03:18:36.864Z,2.20
2023-01-30T03:21:06.119Z,1.77
2023-01-30T03:23:33.335Z,2.22
2023-01-30T03:26:03.702Z,1.73
2023-01-30T03:28:31.173Z,1.90
2023-01-30T03:30:58.298Z,2.17
2023-01-30T03:33:25.172Z,2.95
2023-01-30T03:35:53.005Z,1.50
2023-01-30T03:38:20.572Z,1.73
2023-01-30T03:40:47.638Z,2.30
2023-01-30T03:43:14.405Z,1.75
2023-01-30T03:45:41.372Z,2.03
2023-01-30T03:48:08.320Z,1.83
2023-01-30T03:50:35.635Z,2.10
2023-01-30T03:53:02.716Z,2.00
2023-01-30T03:55:29.726Z,1.50
2023-01-30T03:57:57.938Z,1.73
2023-01-30T04:00:25.205Z,1.85
2023-01-30T04:02:54.031Z,1.67
2023-01-30T04:05:21.321Z,2.10
2023-01-30T04:07:48.345Z,1.50
2023-01-30T04:10:15.939Z,2.28
2023-01-30T04:12:43.425Z,1.70
2023-01-30T04:15:10.936Z,1.70
2023-01-30T04:17:37.789Z,2.40
2023-01-30T04:20:05.151Z,1.65
2023-01-30T04:22:31.959Z,2.88
2023-01-30T04:24:58.806Z,2.28
2023-01-30T04:27:25.593Z,2.13
2023-01-30T04:29:52.456Z,1.98
2023-01-30T04:32:19.285Z,1.67
2023-01-30T04:34:46.186Z,2.10
2023-01-30T04:37:13.688Z,1.63
2023-01-30T04:39:40.337Z,1.40
2023-01-30T04:42:07.309Z,1.98
2023-01-30T04:44:34.239Z,2.28
2023-01-30T04:47:01.166Z,2.35
2023-01-30T04:49:28.085Z,1.70
2023-01-30T04:51:54.996Z,1.83
2023-01-30T04:54:22.021Z,1.40
2023-01-30T04:56:48.904Z,1.50
2023-01-30T04:59:15.761Z,1.55
2023-01-30T05:01:43.303Z,1.40
2023-01-30T05:04:10.217Z,1.70
2023-01-30T05:06:37.330Z,1.80
2023-01-30T05:09:04.861Z,1.33
2023-01-30T05:11:32.730Z,1.73
2023-01-30T05:14:00.320Z,1.70
2023-01-30T05:16:27.831Z,1.25
2023-01-30T05:18:54.877Z,1.30
2023-01-30T05:21:26.112Z,1.05
2023-01-30T05:23:53.679Z,1.92
2023-01-30T05:26:20.596Z,1.75
2023-01-30T05:28:55.904Z,1.73
2023-01-30T05:31:23.382Z,1.10
2023-01-30T05:33:52.603Z,2.00
2023-01-30T05:36:21.909Z,1.85
2023-01-30T05:38:48.956Z,1.40
2023-01-30T05:41:17.341Z,1.58
2023-01-30T05:43:44.453Z,1.80
2023-01-30T05:46:14.071Z,1.63
2023-01-30T05:48:40.923Z,1.50
2023-01-30T05:51:15.622Z,1.35
2023-01-30T05:53:42.560Z,1.83
2023-01-30T05:56:09.469Z,1.30
2023-01-30T05:58:36.400Z,1.30
2023-01-30T06:01:09.983Z,1.92
2023-01-30T06:03:37.073Z,1.17
2023-01-30T06:06:05.560Z,1.85
2023-01-30T06:08:33.242Z,1.90
2023-01-30T06:11:04.197Z,1.40
2023-01-30T06:13:31.198Z,1.50
2023-01-30T06:15:58.283Z,2.03
2023-01-30T06:18:25.370Z,1.55
2023-01-30T06:20:53.401Z,1.00
2023-01-30T06:23:21.643Z,1.63
2023-01-30T06:25:50.106Z,1.10
2023-01-30T06:28:20.168Z,1.33
2023-01-30T06:30:47.137Z,1.63
2023-01-30T06:33:14.423Z,1.45
2023-01-30T06:35:42.734Z,1.30
2023-01-30T06:38:11.589Z,1.70
2023-01-30T06:40:39.119Z,3.30
2023-01-30T06:43:06.365Z,1.55
2023-01-30T06:45:33.640Z,1.52
2023-01-30T06:48:00.625Z,1.60
2023-01-30T06:50:28.688Z,1.30
2023-01-30T06:52:56.057Z,2.08
2023-01-30T06:55:26.979Z,1.65
2023-01-30T06:58:26.385Z,0.82
2023-01-30T07:00:53.849Z,1.15
2023-01-30T07:03:20.600Z,1.08
2023-01-30T07:05:48.175Z,1.73
2023-01-30T07:08:16.593Z,0.90
2023-01-30T07:10:44.917Z,1.33
2023-01-30T07:13:12.505Z,1.15
2023-01-30T07:15:39.502Z,1.48
2023-01-30T07:18:06.268Z,1.30
2023-01-30T07:20:33.529Z,1.52
2023-01-30T07:23:02.541Z,0.80
2023-01-30T07:25:29.901Z,1.25
2023-01-30T07:27:59.482Z,1.70
2023-01-30T07:30:29.154Z,1.13
2023-01-30T07:32:58.484Z,1.23
2023-01-30T07:35:27.504Z,1.10
2023-01-30T07:37:54.496Z,1.20
2023-01-30T07:40:22.377Z,1.10
2023-01-30T07:43:04.874Z,1.95
2023-01-30T07:45:43.667Z,1.20
2023-01-30T07:48:16.355Z,1.35
2023-01-30T07:50:43.863Z,1.35
2023-01-30T07:53:13.080Z,1.00
2023-01-30T07:55:40.112Z,0.90
2023-01-30T07:58:07.082Z,1.08
2023-01-30T08:00:34.527Z,0.93
2023-01-30T08:03:01.541Z,1.30
2023-01-30T08:05:28.473Z,1.35
2023-01-30T08:07:58.362Z,1.35
2023-01-30T08:10:25.413Z,1.50
2023-01-30T08:12:52.705Z,0.88
2023-01-30T08:15:21.958Z,1.50
2023-01-30T08:17:56.587Z,0.82
2023-01-30T08:20:24.450Z,1.40
2023-01-30T08:22:51.472Z,1.33
2023-01-30T08:25:18.635Z,1.02
2023-01-30T08:27:45.868Z,0.85
2023-01-30T08:30:13.452Z,1.13
2023-01-30T08:32:40.312Z,1.08
2023-01-30T08:35:07.876Z,1.58
2023-01-30T08:37:34.634Z,1.45
2023-01-30T08:40:01.667Z,1.27
2023-01-30T08:42:28.660Z,1.23
2023-01-30T08:44:55.680Z,1.25
2023-01-30T08:47:22.581Z,1.38
2023-01-30T08:49:51.657Z,1.40
2023-01-30T08:52:19.615Z,1.25
2023-01-30T08:54:46.773Z,1.65
2023-01-30T08:57:15.489Z,1.10
2023-01-30T08:59:44.667Z,1.15
2023-01-30T09:02:13.192Z,1.13
2023-01-30T09:04:40.445Z,1.33
2023-01-30T09:07:07.328Z,1.50
2023-01-30T09:09:34.540Z,1.50
2023-01-30T09:12:01.696Z,1.27
2023-01-30T09:14:28.678Z,1.02
2023-01-30T09:16:56.042Z,1.40
2023-01-30T09:19:25.229Z,1.67
2023-01-30T09:21:53.367Z,1.15
2023-01-30T09:24:21.125Z,1.13
2023-01-30T09:26:48.306Z,1.30
2023-01-30T09:29:15.361Z,1.10
2023-01-30T09:31:42.242Z,0.85
2023-01-30T09:34:09.404Z,0.82
2023-01-30T09:36:40.350Z,0.88
2023-01-30T09:39:07.655Z,1.13
2023-01-30T09:41:59.493Z,1.30
2023-01-30T09:44:51.848Z,1.00
2023-01-30T09:47:32.393Z,2.00
2023-01-30T09:50:18.862Z,1.30
2023-01-30T09:52:56.772Z,1.52
2023-01-30T09:55:26.919Z,0.98
2023-01-30T09:57:54.096Z,1.33
2023-01-30T10:00:39.957Z,1.05
2023-01-30T10:03:13.176Z,1.33
2023-01-30T10:05:54.651Z,0.85
2023-01-30T10:08:28.984Z,1.10
2023-01-30T10:11:16.211Z,0.90
2023-01-30T10:13:55.255Z,1.00
2023-01-30T10:16:30.553Z,0.80
2023-01-30T10:19:36.425Z,0.77
2023-01-30T10:25:30.464Z,0.77
2023-01-30T10:28:25.010Z,1.38
2023-01-30T10:30:56.685Z,1.10
2023-01-30T10:33:33.911Z,0.93
2023-01-30T10:36:08.328Z,0.63
2023-01-30T10:38:48.227Z,0.55
2023-01-30T10:41:33.321Z,0.80
2023-01-30T10:44:08.594Z,1.10
2023-01-30T10:47:01.116Z,1.08
2023-01-30T10:49:30.913Z,0.70
2023-01-30T10:52:13.015Z,1.00
2023-01-30T10:54:55.937Z,0.90
2023-01-30T10:57:35.267Z,0.70
2023-01-30T11:00:10.411Z,0.90
2023-01-30T11:02:52.266Z,0.70
2023-01-30T11:05:25.933Z,1.20
2023-01-30T11:07:53.069Z,1.50
2023-01-30T11:10:23.720Z,0.70
2023-01-30T11:13:10.476Z,0.52
2023-01-30T11:15:41.540Z,0.88
2023-01-30T11:19:01.766Z,1.08
2023-01-30T11:21:04.725Z,0.80
2023-01-30T11:23:33.769Z,0.70
2023-01-30T11:26:11.286Z,0.77
2023-01-30T11:28:43.619Z,0.60
2023-01-30T11:31:41.001Z,0.55
2023-01-30T11:34:19.630Z,1.00
2023-01-30T11:36:47.637Z,0.65
2023-01-30T11:39:17.781Z,0.80
2023-01-30T11:41:57.090Z,0.80
2023-01-30T11:44:29.119Z,0.70
2023-01-30T11:47:25.802Z,0.47
2023-01-30T11:50:08.052Z,0.85
2023-01-30T11:52:44.190Z,0.60
2023-01-30T11:55:15.608Z,0.55
2023-01-30T11:57:58.680Z,0.28
2023-01-30T12:00:38.488Z,0.77
2023-01-30T12:03:11.169Z,0.73
2023-01-30T12:05:43.096Z,1.00
2023-01-30T12:08:40.291Z,0.85
2023-01-30T12:11:28.748Z,0.63
2023-01-30T12:14:04.859Z,0.55
2023-01-30T12:16:46.412Z,0.43
2023-01-30T12:19:19.186Z,0.80
2023-01-30T12:22:01.994Z,0.80
2023-01-30T12:24:39.299Z,0.50
2023-01-30T12:28:02.105Z,0.88
2023-01-30T12:30:42.737Z,0.52
2023-01-30T12:33:15.827Z,0.40
2023-01-30T12:35:55.142Z,0.63
2023-01-30T12:38:48.038Z,0.60
2023-01-30T12:41:32.188Z,0.77
2023-01-30T12:44:43.153Z,0.60
2023-01-30T12:47:42.495Z,0.50
2023-01-30T12:50:12.381Z,0.90
2023-01-30T12:52:58.774Z,0.93
2023-01-30T12:55:36.867Z,0.85
2023-01-30T12:58:16.983Z,0.70
2023-01-30T13:00:59.081Z,0.50
2023-01-30T13:03:41.741Z,0.43
2023-01-30T13:06:44.995Z,0.52
2023-01-30T13:09:26.071Z,0.70
2023-01-30T13:12:14.041Z,2.30
2023-01-30T13:15:13.878Z,0.43
2023-01-30T13:18:00.176Z,0.60
2023-01-30T13:21:05.470Z,0.93
2023-01-30T13:24:03.065Z,0.50
2023-01-30T13:26:35.155Z,0.40
2023-01-30T13:29:10.130Z,0.82
2023-01-30T13:31:40.166Z,0.50
2023-01-30T13:34:12.346Z,0.40
2023-01-30T13:36:57.286Z,0.50
2023-01-30T13:39:52.463Z,0.63
2023-01-30T13:42:28.525Z,0.40
2023-01-30T13:44:57.585Z,0.47
2023-01-30T13:47:47.172Z,0.80
2023-01-30T13:50:51.826Z,0.70
2023-01-30T13:53:46.218Z,0.60
2023-01-30T13:56:40.816Z,0.90
2023-01-30T13:59:18.340Z,0.90
2023-01-30T14:02:03.572Z,0.63
2023-01-30T14:04:37.001Z,0.50
2023-01-30T14:07:13.119Z,0.73
2023-01-30T14:09:47.052Z,0.40
2023-01-30T14:12:24.179Z,0.43
2023-01-30T14:15:24.205Z,0.73
2023-01-30T14:18:03.306Z,0.50
2023-01-30T14:20:33.773Z,0.60
2023-01-30T14:23:34.333Z,0.60
2023-01-30T14:26:02.025Z,0.43
2023-01-30T14:28:28.953Z,0.57
2023-01-30T14:31:01.715Z,0.70
2023-01-30T14:33:32.147Z,0.30
2023-01-30T14:35:59.124Z,0.40
2023-01-30T14:38:28.489Z,0.55
2023-01-30T14:40:58.384Z,0.40
2023-01-30T14:43:43.576Z,0.45
2023-01-30T14:46:19.215Z,0.70
2023-01-30T14:48:54.193Z,0.32
2023-01-30T14:51:43.823Z,0.60
2023-01-30T14:54:14.576Z,0.30
2023-01-30T14:57:17.126Z,0.40
2023-01-30T15:00:16.521Z,0.30
2023-01-30T15:02:54.146Z,0.70
2023-01-30T15:05:27.512Z,0.32
2023-01-30T15:08:28.499Z,0.40
2023-01-30T15:11:04.406Z,0.60
2023-01-30T15:13:48.182Z,0.50
2023-01-30T15:16:18.096Z,0.40
2023-01-30T15:19:04.035Z,0.47
2023-01-30T15:21:49.628Z,1.25
2023-01-30T15:24:28.833Z,0.40
2023-01-30T15:27:11.100Z,0.70
2023-01-30T15:29:47.057Z,0.40
2023-01-30T15:32:20.113Z,0.40
2023-01-30T15:34:50.102Z,0.52
2023-01-30T15:37:50.175Z,0.70
2023-01-30T15:40:18.434Z,0.57
2023-01-30T15:42:53.832Z,0.55
2023-01-30T15:45:23.725Z,0.80
2023-01-30T15:48:09.097Z,0.80
2023-01-30T15:50:37.019Z,0.50
2023-01-30T15:53:04.207Z,0.88
2023-01-30T15:55:37.277Z,0.65
2023-01-30T15:58:14.906Z,0.90
2023-01-30T16:00:53.841Z,0.90
2023-01-30T16:03:24.098Z,0.82
2023-01-30T16:05:55.486Z,0.90
2023-01-30T16:08:30.779Z,0.60
2023-01-30T16:11:00.947Z,0.80
2023-01-30T16:13:29.107Z,1.00
2023-01-30T16:16:17.175Z,0.80
2023-01-30T16:18:54.217Z,0.80
2023-01-30T16:21:24.030Z,0.80
2023-01-30T16:24:00.639Z,0.80
2023-01-30T16:26:27.970Z,1.00
2023-01-30T16:29:06.589Z,0.80
2023-01-30T16:31:45.903Z,1.75
2023-01-30T16:34:29.914Z,1.20
2023-01-30T16:37:07.848Z,1.00
2023-01-30T16:39:37.025Z,2.15
2023-01-30T16:42:22.450Z,0.90
2023-01-30T16:47:27.495Z,0.90
2023-01-30T16:49:55.853Z,1.52
2023-01-30T16:52:38.234Z,0.80
2023-01-30T16:55:08.940Z,0.93
2023-01-30T16:57:45.870Z,0.80
2023-01-30T17:00:26.462Z,0.70
2023-01-30T17:03:00.408Z,0.80
2023-01-30T17:05:30.773Z,1.15
2023-01-30T17:08:00.665Z,0.80
2023-01-30T17:10:40.267Z,0.98
2023-01-30T17:13:32.251Z,1.13
2023-01-30T17:16:34.311Z,0.63
2023-01-30T17:19:02.103Z,0.57
2023-01-30T17:21:42.903Z,1.15
2023-01-30T17:24:14.623Z,2.15
2023-01-30T17:26:42.044Z,1.10
2023-01-30T17:29:23.886Z,0.70
2023-01-30T17:32:01.334Z,0.95
2023-01-30T17:34:28.955Z,1.13
2023-01-30T17:36:56.355Z,0.90
2023-01-30T17:39:27.155Z,1.10
2023-01-30T17:41:54.070Z,0.73
2023-01-30T17:44:20.960Z,1.15
2023-01-30T17:46:49.626Z,1.30
2023-01-30T17:49:19.716Z,1.02
2023-01-30T17:51:47.117Z,0.70
2023-01-30T17:54:16.608Z,0.68
2023-01-30T17:56:47.505Z,0.70
2023-01-30T17:59:17.139Z,0.85
2023-01-30T18:01:46.419Z,0.95
2023-01-30T18:04:14.087Z,0.55
2023-01-30T18:06:43.721Z,0.70
2023-01-30T18:09:16.114Z,0.57
2023-01-30T18:11:42.876Z,1.23
2023-01-30T18:14:09.884Z,0.65
2023-01-30T18:16:37.007Z,0.73
2023-01-30T18:19:06.320Z,0.63
2023-01-30T18:21:34.246Z,0.68
2023-01-30T18:24:01.707Z,1.15
2023-01-30T18:26:30.153Z,0.95
2023-01-30T18:28:58.411Z,0.82
2023-01-30T18:31:27.154Z,0.90
2023-01-30T18:33:55.419Z,1.02
2023-01-30T18:36:23.334Z,0.63
2023-01-30T18:38:50.372Z,1.10
2023-01-30T18:41:19.959Z,0.80
2023-01-30T18:43:48.587Z,0.82
2023-01-30T18:46:17.457Z,0.60
2023-01-30T18:48:45.621Z,1.92
2023-01-30T18:51:19.254Z,0.90
2023-01-30T18:53:50.954Z,0.90
2023-01-30T18:56:23.628Z,0.70
2023-01-30T18:58:52.478Z,0.60
2023-01-30T19:01:22.417Z,0.90
2023-01-30T19:03:49.988Z,0.95
2023-01-30T19:06:19.017Z,0.90
2023-01-30T19:08:46.582Z,0.60
2023-01-30T19:11:34.688Z,0.77
2023-01-30T19:14:02.661Z,0.80
2023-01-30T19:16:31.272Z,0.90
2023-01-30T19:18:58.464Z,0.80
2023-01-30T19:21:26.274Z,0.80
2023-01-30T19:23:53.823Z,0.65
2023-01-30T19:26:22.669Z,0.70
2023-01-30T19:28:49.831Z,0.90
2023-01-30T19:31:18.782Z,0.80
2023-01-30T19:33:48.565Z,0.60
2023-01-30T19:36:18.079Z,0.40
2023-01-30T19:38:46.577Z,0.40
2023-01-30T19:41:35.440Z,0.50
2023-01-30T19:44:04.401Z,0.50
2023-01-30T19:46:32.123Z,0.70
2023-01-30T19:48:59.338Z,0.50
2023-01-30T19:51:28.923Z,0.60
2023-01-30T19:54:01.422Z,0.60
2023-01-30T19:56:29.707Z,0.80
2023-01-30T19:58:58.846Z,0.55
2023-01-30T20:01:29.882Z,0.68
2023-01-30T20:03:57.751Z,0.40
2023-01-30T20:06:28.115Z,0.40
2023-01-30T20:09:00.744Z,0.50
2023-01-30T20:11:28.709Z,0.55
2023-01-30T20:13:56.213Z,0.40
2023-01-30T20:16:27.538Z,0.60
2023-01-30T20:18:57.516Z,0.73
2023-01-30T20:21:25.619Z,0.60
2023-01-30T20:23:53.015Z,0.90
2023-01-30T20:26:22.804Z,0.63
2023-01-30T20:28:54.793Z,0.57
2023-01-30T20:31:26.931Z,0.50
2023-01-30T20:33:56.908Z,0.63
2023-01-30T20:36:26.242Z,0.93
2023-01-30T20:38:55.239Z,0.65
2023-01-30T20:41:25.152Z,0.55
2023-01-30T20:43:55.080Z,0.80
2023-01-30T20:46:24.015Z,0.70
2023-01-30T20:48:54.572Z,0.90
2023-01-30T20:51:24.499Z,0.70
2023-01-30T20:53:54.285Z,0.80
2023-01-30T20:56:22.516Z,0.50
2023-01-30T20:58:49.785Z,0.80
2023-01-30T21:01:19.720Z,1.00
2023-01-30T21:03:51.082Z,0.77
2023-01-30T21:06:42.554Z,0.88
2023-01-30T21:09:17.446Z,1.05
2023-01-30T21:11:44.991Z,0.73
2023-01-30T21:14:12.299Z,1.08
2023-01-30T21:16:39.530Z,0.95
2023-01-30T21:19:12.985Z,1.33
2023-01-30T21:21:51.197Z,1.08
2023-01-30T21:24:21.645Z,1.10
2023-01-30T21:26:49.303Z,0.98
2023-01-30T21:29:19.658Z,1.65
2023-01-30T21:31:47.009Z,1.00
2023-01-30T21:34:15.595Z,0.85
2023-01-30T21:36:42.719Z,0.90
2023-01-30T21:39:32.135Z,0.88
2023-01-30T21:42:17.552Z,1.27
2023-01-30T21:44:44.583Z,0.73
2023-01-30T21:47:11.415Z,0.93
2023-01-30T21:49:38.917Z,1.10
2023-01-30T21:52:05.952Z,1.10
2023-01-30T21:54:32.963Z,0.80
2023-01-30T21:56:59.993Z,1.55
2023-01-30T21:59:26.674Z,1.00
2023-01-30T22:01:53.582Z,1.10
2023-01-30T22:04:20.539Z,0.82
2023-01-30T22:06:47.455Z,0.70
2023-01-30T22:09:15.768Z,0.90
2023-01-30T22:11:42.746Z,0.70
2023-01-30T22:14:13.221Z,1.23
2023-01-30T22:16:40.395Z,0.90
2023-01-30T22:19:07.724Z,0.95
2023-01-30T22:21:38.552Z,0.82
2023-01-30T22:24:07.746Z,0.98
2023-01-30T22:26:34.695Z,1.05
2023-01-30T22:29:04.444Z,1.05
2023-01-30T22:31:34.871Z,0.82
2023-01-30T22:34:03.598Z,1.02
2023-01-30T22:36:33.425Z,0.73
2023-01-30T22:39:00.181Z,0.88
2023-01-30T22:41:28.710Z,0.90
2023-01-30T22:43:58.236Z,0.65
2023-01-30T22:46:33.624Z,1.42
2023-01-30T22:49:02.038Z,0.95
2023-01-30T22:51:34.452Z,0.80
2023-01-30T22:54:07.384Z,2.30
2023-01-30T22:56:40.746Z,1.00
2023-01-30T22:59:08.466Z,1.10
2023-01-30T23:01:40.604Z,0.80
2023-01-30T23:04:14.741Z,0.90
2023-01-30T23:06:43.093Z,0.70
2023-01-30T23:09:13.440Z,0.70
2023-01-30T23:11:44.400Z,0.80
2023-01-30T23:14:16.626Z,0.80
2023-01-30T23:16:45.278Z,0.85
2023-01-30T23:19:13.634Z,0.93
2023-01-30T23:21:45.776Z,0.73
2023-01-30T23:24:18.007Z,0.90
2023-01-30T23:26:50.753Z,0.60
2023-01-30T23:29:20.278Z,0.60
2023-01-30T23:31:47.905Z,0.73
2023-01-30T23:34:18.139Z,0.50
2023-01-30T23:36:46.023Z,0.70
2023-01-30T23:39:14.220Z,0.85
2023-01-30T23:41:42.522Z,0.80
2023-01-30T23:44:10.399Z,0.80
2023-01-30T23:46:42.048Z,0.77
2023-01-30T23:49:13.541Z,0.75
2023-01-30T23:51:43.062Z,1.30
2023-01-30T23:54:11.067Z,0.80
2023-01-30T23:56:40.585Z,0.57
2023-01-30T23:59:07.397Z,0.68
